Main page
METAR-TAF:

METAR-TAF

Airports :

Chongqing, China

Chongqing Jiangbei International Airport

latitude: 29-31N, longitude: 106-29E, elevation: 351 m

Current weather observation

The report was made 1 hour and 6 minutes ago, at 01:00 UTC
Wind 6 kt from the South/Southeast
Temperature 24°C
Humidity 89%
Pressure 1009 hPa
Visibility: 2300 m
Few clouds at a height of 600 ft
mist

METAR: ZUCK 290100Z 16003MPS 2300 BR FEW006 24/22 Q1009 BECMG TL0230 3100

Time: 10:06 (02:06 UTC)

Forecast

The report was made 7 hours and 1 minutes ago, at 19:05 UTC
Forecast valid from 29 at 00 UTC to 29 at 24 UTC
Wind 6 kt from the West/Northwest
Visibility: 5000 m
Scattered clouds at a height of 4000 ft
mist

TAF: ZUCK 281905Z 2900/2924 30003MPS 5000 BR SCT040 TX30/2907Z TN23/2922Z

Weather observations and forecasts of more than 4000 airports (METAR and TAF reports).

The available stations are represented by yellow and red dots on the map.

Hover mouse over dot to see the name of the station.

Then click to see weather observations and forecasts.

To change the map : click on the green buttons with a black cross to zoom in, on the green button with a dash to zoom out, or on the green arrows for adjacent maps.


METAR-TAF: